Terminal Aerodrome Forecast
Issued by NWS

Home | Current Version | Previous Version | Text Only | Print | Product List | Glossary On
Versions: 1 2 3 4 5 6 7 8 9 10 11 12 13
000
FTUS43 KICT 221700
TAFCNU
TAF
KCNU 221724Z 2218/2318 22012KT P6SM SKC
     FM230600 36005KT P6SM BKN080
     FM231200 01005KT P6SM BKN030=

USA.gov is the U.S. government's official web portal to all federal, state and local government web resources and services.